Terminal Aerodrome Forecast
Issued by NWS

Home | Current Version | Previous Version | Text Only | Print | Product List | Glossary On
Versions: 1 2 3 4 5 6 7 8 9 10 11 12 13 14 15 16 17 18
000
FTUS42 KTAE 201336 AAA
TAFDHN
TAF AMD
KDHN 201336Z 2014/2112 12006KT P6SM OVC005
     FM201500 14010KT P6SM BKN015
     FM201900 15009KT P6SM BKN040
     FM210600 15005KT 4SM BR BKN025=

USA.gov is the U.S. government's official web portal to all federal, state and local government web resources and services.